42N weather

Double Jj Resort Ranch Airport
Rothbury, Michigan, United States

Public forecast

Using degrees Fahrenheit for public forecast. Weather courtesy of forecast.io.

METAR (pilot weather report)

Closest report is Fremont Municipal Airport, 17.1 nm (31.7 km) ESE. Retrieved 2019/07/18 10:35 UTC (8 minutes ago):

KFFX 181035Z AUTO 12005KT 10SM CLR 21/19 A2987 RMK AO2 T02060186

TAF (pilot weather forecast)

Closest forecast is Muskegon County Airport, 21.7 nm (40.1 km) SSE. Retrieved 2019/07/18 06:42 UTC (4 hours ago):

TAF KMKG 180540Z 1806/1906 14005KT P6SM BKN250 FM181200 18008KT P6SM BKN100 FM181500 19012G21KT 5SM -SHRA VCTS BKN050CB FM181800 19012G21KT P6SM SCT035 BKN250